aviador You're here:

KLRF Decoded Metar

JACKSONVILLE in AR, USA
Report Time2017-08-22 08:58:00
UTC Time2017-08-22 09:12:59
Flight Rules vfr VFR
WindCalm
Visibility9999 m
Phenomena:N/A
Clouds:N/A
CeilingNone
Temp24°C (ISA +10)
Dew Point24°C (100% RH)
QNH1016 hPa
Density Alt1,719 ft
Elevation312 ft
Report Wrong Elevation
Raw Report
KLRF 220858Z AUTO 00000KT 10SM CLR 24/24 A3001 RMK AO2 SLP162
T02370237 57015=

Extra information for KLRF:More info

Metar Taf Metar & Taf Last 4 Metars F.Rules Stats Wind Profile Meteogram Temp Stats Airport Information Weather charts Add Link Nearby VenuesMetar ALERT Operation Metar Decoded Social comments

AIRNAV info for KLRF